Marcolorado — V2EY5 — position and weather

sailwx.info

Track history (hours):
 
Tides and Currents Weather Stations Pressure Air Temp Water Temp Dewpoint Dewpoint Depression Visibility Wind Speed Wind Dir Waves Ship Positions

Marcolorado

Last reported at 2015-Jan-27 05:31 UTC. Time now 2015-Jan-27 05:46 UTC.
Position N 46°57' E 032°01'.

Length 185 m; draft 6.4 m.

Type: Cargo ship. MMSI: 305599000.

Date/timePositionNaut miles runAvg speedWind from/ knotsBaromVisibWave heightAir tempDewpointWater temp
2015-Jan-27 05:31N 46°57' E 032°01'0 0.0
2015-Jan-27 04:31N 46°57' E 032°01'0 0.0
2015-Jan-27 03:31N 46°57' E 032°01'0 0.0
2015-Jan-27 02:31N 46°57' E 032°01'0 0.0
2015-Jan-27 01:31N 46°57' E 032°01'0 0.0
2015-Jan-27 00:31N 46°57' E 032°01'0 0.0
2015-Jan-26 23:34N 46°57' E 032°01'0 0.0
2015-Jan-26 22:31N 46°57' E 032°01'0 0.0
2015-Jan-26 21:31N 46°57' E 032°01'0 0.0
2015-Jan-26 20:31N 46°57' E 032°01'0 0.0
2015-Jan-26 19:34N 46°57' E 032°01'0 0.0
2015-Jan-26 18:31N 46°57' E 032°01'0 0.0
2015-Jan-26 17:31N 46°57' E 032°01'0 0.0
2015-Jan-26 16:31N 46°57' E 032°01'0 0.0
2015-Jan-26 15:31N 46°57' E 032°01'0 0.0
2015-Jan-26 14:31N 46°57' E 032°01'0 0.0
2015-Jan-26 13:33N 46°57' E 032°01'0 0.0
2015-Jan-26 12:33N 46°57' E 032°01'0 0.0
2015-Jan-26 11:31N 46°57' E 032°01'0 0.0
2015-Jan-26 10:34N 46°57' E 032°01'0 0.0
2015-Jan-26 09:34N 46°57' E 032°01'0 0.0
2015-Jan-26 08:31N 46°57' E 032°01'0 0.0
2015-Jan-26 07:34N 46°57' E 032°01'0 0.4
2015-Jan-26 06:30N 46°56' E 032°01'0 0.0
2015-Jan-26 05:33N 46°56' E 032°00'0 0.0
2015-Jan-26 04:33N 46°56' E 032°01'0 0.0
2015-Jan-26 03:33N 46°56' E 032°00'0 0.0
2015-Jan-26 02:33N 46°56' E 032°00'1 0.6
2015-Jan-26 01:33N 46°56' E 032°01'8 8.2
2015-Jan-26 00:34N 46°49' E 031°54'9 9.1
2015-Jan-25 23:33N 46°40' E 031°56'9 9.4
2015-Jan-25 22:33N 46°36' E 031°44'1111.2
2015-Jan-25 21:33N 46°35' E 031°27'323 6.3
2015-Jan-23 18:31N 41°26' E 029°17'118 9.9
2015-Jan-23 06:32N 40°30' E 026°59'1312.2
2015-Jan-23 05:28N 40°25' E 026°44'2211.2
2015-Jan-23 03:32N 40°10' E 026°24'2010.1
2015-Jan-23 01:31N 39°59' E 026°01'13112.9
2015-Jan-22 15:21N 37°48' E 025°45'1113.7
2015-Jan-22 14:33N 37°38' E 025°50'1413.6
2015-Jan-22 13:32N 37°26' E 025°59'2013.9
2015-Jan-22 12:05N 37°13' E 026°18'3712.8
2015-Jan-22 09:12N 36°41' E 026°42'  
Track history (hours):
 
Tides and Currents Weather Stations Pressure Air Temp Water Temp Dewpoint Dewpoint Depression Visibility Wind Speed Wind Dir Waves Ship Positions

Marcolorado

Last reported at 2015-Jan-27 05:31 UTC. Time now 2015-Jan-27 05:46 UTC.
Position N 46°57' E 032°01'.

Length 185 m; draft 6.4 m.

Type: Cargo ship. MMSI: 305599000.

Date/timePositionNaut miles runAvg speedWind from/ knotsBaromVisibWave heightAir tempDewpointWater temp
2015-Jan-27 05:31N 46°57' E 032°01'0 0.0
2015-Jan-27 04:31N 46°57' E 032°01'0 0.0
2015-Jan-27 03:31N 46°57' E 032°01'0 0.0
2015-Jan-27 02:31N 46°57' E 032°01'0 0.0
2015-Jan-27 01:31N 46°57' E 032°01'0 0.0
2015-Jan-27 00:31N 46°57' E 032°01'0 0.0
2015-Jan-26 23:34N 46°57' E 032°01'0 0.0
2015-Jan-26 22:31N 46°57' E 032°01'0 0.0
2015-Jan-26 21:31N 46°57' E 032°01'0 0.0
2015-Jan-26 20:31N 46°57' E 032°01'0 0.0
2015-Jan-26 19:34N 46°57' E 032°01'0 0.0
2015-Jan-26 18:31N 46°57' E 032°01'0 0.0
2015-Jan-26 17:31N 46°57' E 032°01'0 0.0
2015-Jan-26 16:31N 46°57' E 032°01'0 0.0
2015-Jan-26 15:31N 46°57' E 032°01'0 0.0
2015-Jan-26 14:31N 46°57' E 032°01'0 0.0
2015-Jan-26 13:33N 46°57' E 032°01'0 0.0
2015-Jan-26 12:33N 46°57' E 032°01'0 0.0
2015-Jan-26 11:31N 46°57' E 032°01'0 0.0
2015-Jan-26 10:34N 46°57' E 032°01'0 0.0
2015-Jan-26 09:34N 46°57' E 032°01'0 0.0
2015-Jan-26 08:31N 46°57' E 032°01'0 0.0
2015-Jan-26 07:34N 46°57' E 032°01'0 0.4
2015-Jan-26 06:30N 46°56' E 032°01'0 0.0
2015-Jan-26 05:33N 46°56' E 032°00'0 0.0
2015-Jan-26 04:33N 46°56' E 032°01'0 0.0
2015-Jan-26 03:33N 46°56' E 032°00'0 0.0
2015-Jan-26 02:33N 46°56' E 032°00'1 0.6
2015-Jan-26 01:33N 46°56' E 032°01'8 8.2
2015-Jan-26 00:34N 46°49' E 031°54'9 9.1
2015-Jan-25 23:33N 46°40' E 031°56'9 9.4
2015-Jan-25 22:33N 46°36' E 031°44'1111.2
2015-Jan-25 21:33N 46°35' E 031°27'323 6.3
2015-Jan-23 18:31N 41°26' E 029°17'118 9.9
2015-Jan-23 06:32N 40°30' E 026°59'1312.2
2015-Jan-23 05:28N 40°25' E 026°44'2211.2
2015-Jan-23 03:32N 40°10' E 026°24'2010.1
2015-Jan-23 01:31N 39°59' E 026°01'13112.9
2015-Jan-22 15:21N 37°48' E 025°45'1113.7
2015-Jan-22 14:33N 37°38' E 025°50'1413.6
2015-Jan-22 13:32N 37°26' E 025°59'2013.9
2015-Jan-22 12:05N 37°13' E 026°18'3712.8
2015-Jan-22 09:12N 36°41' E 026°42'  

Dump ship's entire track history